sensor_id;sensor_type;location;lat;lon;timestamp;pressure;altitude;pressure_sealevel;temperature;humidity
12349;BME280;5974;42.710;27.258;2023-02-18T00:01:15;100789.25;;;4.34;100.00
12349;BME280;5974;42.710;27.258;2023-02-18T00:03:43;100784.34;;;3.52;100.00
12349;BME280;5974;42.710;27.258;2023-02-18T00:06:13;100795.50;;;3.66;100.00
12349;BME280;5974;42.710;27.258;2023-02-18T00:08:42;100787.75;;;3.80;100.00
12349;BME280;5974;42.710;27.258;2023-02-18T00:11:09;100786.09;;;3.38;100.00
12349;BME280;5974;42.710;27.258;2023-02-18T00:13:36;100789.53;;;3.22;100.00
12349;BME280;5974;42.710;27.258;2023-02-18T00:16:05;100777.47;;;3.12;100.00
12349;BME280;5974;42.710;27.258;2023-02-18T00:18:33;100789.53;;;3.04;100.00
12349;BME280;5974;42.710;27.258;2023-02-18T00:21:02;100779.19;;;2.80;100.00
12349;BME280;5974;42.710;27.258;2023-02-18T00:23:30;100767.09;;;2.71;100.00
12349;BME280;5974;42.710;27.258;2023-02-18T00:25:59;100779.06;;;2.43;100.00
12349;BME280;5974;42.710;27.258;2023-02-18T00:28:26;100774.03;;;2.80;100.00
12349;BME280;5974;42.710;27.258;2023-02-18T00:30:53;100770.56;;;2.93;100.00
12349;BME280;5974;42.710;27.258;2023-02-18T00:33:20;100765.41;;;3.14;100.00
12349;BME280;5974;42.710;27.258;2023-02-18T00:35:47;100761.97;;;2.82;100.00
12349;BME280;5974;42.710;27.258;2023-02-18T00:38:14;100759.38;;;2.76;100.00
12349;BME280;5974;42.710;27.258;2023-02-18T00:40:42;100761.97;;;2.72;100.00
12349;BME280;5974;42.710;27.258;2023-02-18T00:43:09;100762.81;;;2.71;100.00
12349;BME280;5974;42.710;27.258;2023-02-18T00:45:36;100758.53;;;2.95;100.00
12349;BME280;5974;42.710;27.258;2023-02-18T00:48:03;100750.78;;;3.10;100.00
12349;BME280;5974;42.710;27.258;2023-02-18T00:50:30;100740.44;;;3.17;100.00
12349;BME280;5974;42.710;27.258;2023-02-18T00:52:57;100735.28;;;3.16;100.00
12349;BME280;5974;42.710;27.258;2023-02-18T00:55:24;100726.66;;;3.17;100.00
12349;BME280;5974;42.710;27.258;2023-02-18T00:57:52;100728.31;;;3.57;100.00
12349;BME280;5974;42.710;27.258;2023-02-18T01:00:19;100695.56;;;5.05;100.00
12349;BME280;5974;42.710;27.258;2023-02-18T01:02:46;100728.00;;;6.22;100.00
12349;BME280;5974;42.710;27.258;2023-02-18T01:05:13;100710.84;;;6.71;100.00
12349;BME280;5974;42.710;27.258;2023-02-18T01:07:40;100701.78;;;6.98;100.00
12349;BME280;5974;42.710;27.258;2023-02-18T01:10:07;100707.88;;;6.95;100.00
12349;BME280;5974;42.710;27.258;2023-02-18T01:12:34;100702.59;;;7.00;100.00
12349;BME280;5974;42.710;27.258;2023-02-18T01:15:03;100700.88;;;7.00;100.00
12349;BME280;5974;42.710;27.258;2023-02-18T01:17:30;100699.97;;;7.01;100.00
12349;BME280;5974;42.710;27.258;2023-02-18T01:19:57;100680.50;;;6.75;100.00
12349;BME280;5974;42.710;27.258;2023-02-18T01:22:25;100699.59;;;6.71;100.00
12349;BME280;5974;42.710;27.258;2023-02-18T01:24:52;100697.28;;;6.54;100.00
12349;BME280;5974;42.710;27.258;2023-02-18T01:27:19;100698.88;;;6.64;100.00
12349;BME280;5974;42.710;27.258;2023-02-18T01:29:45;100688.44;;;6.67;100.00
12349;BME280;5974;42.710;27.258;2023-02-18T01:32:14;100690.94;;;6.72;100.00
12349;BME280;5974;42.710;27.258;2023-02-18T01:34:40;100684.47;;;6.95;100.00
12349;BME280;5974;42.710;27.258;2023-02-18T01:37:07;100685.28;;;7.00;100.00
12349;BME280;5974;42.710;27.258;2023-02-18T01:39:34;100675.09;;;6.88;100.00
12349;BME280;5974;42.710;27.258;2023-02-18T01:42:01;100679.31;;;6.92;100.00
12349;BME280;5974;42.710;27.258;2023-02-18T01:44:28;100684.63;;;6.88;100.00
12349;BME280;5974;42.710;27.258;2023-02-18T01:46:55;100680.38;;;6.81;100.00
12349;BME280;5974;42.710;27.258;2023-02-18T01:49:26;100678.56;;;6.89;100.00
12349;BME280;5974;42.710;27.258;2023-02-18T01:51:58;100665.59;;;6.86;100.00
12349;BME280;5974;42.710;27.258;2023-02-18T01:54:29;100678.66;;;6.83;100.00
12349;BME280;5974;42.710;27.258;2023-02-18T01:57:00;100670.50;;;7.02;100.00
12349;BME280;5974;42.710;27.258;2023-02-18T01:59:32;100663.72;;;6.94;100.00
12349;BME280;5974;42.710;27.258;2023-02-18T02:02:00;100660.97;;;7.03;100.00
12349;BME280;5974;42.710;27.258;2023-02-18T02:04:28;100658.03;;;7.21;100.00
12349;BME280;5974;42.710;27.258;2023-02-18T02:06:55;100660.84;;;7.11;100.00
12349;BME280;5974;42.710;27.258;2023-02-18T02:09:23;100659.66;;;7.28;100.00
12349;BME280;5974;42.710;27.258;2023-02-18T02:12:05;100651.50;;;7.45;100.00
12349;BME280;5974;42.710;27.258;2023-02-18T02:14:48;100628.19;;;7.40;100.00
12349;BME280;5974;42.710;27.258;2023-02-18T02:17:36;100665.19;;;7.54;100.00
12349;BME280;5974;42.710;27.258;2023-02-18T02:20:23;100669.78;;;7.42;100.00
12349;BME280;5974;42.710;27.258;2023-02-18T02:23:33;100665.88;;;7.20;100.00
12349;BME280;5974;42.710;27.258;2023-02-18T02:26:25;100666.00;;;7.12;100.00
12349;BME280;5974;42.710;27.258;2023-02-18T02:29:10;100664.53;;;6.97;100.00
12349;BME280;5974;42.710;27.258;2023-02-18T02:32:02;100658.63;;;6.86;100.00
12349;BME280;5974;42.710;27.258;2023-02-18T02:34:52;100663.09;;;6.80;100.00
12349;BME280;5974;42.710;27.258;2023-02-18T02:37:26;100668.25;;;6.83;100.00
12349;BME280;5974;42.710;27.258;2023-02-18T02:40:06;100672.63;;;6.79;100.00
12349;BME280;5974;42.710;27.258;2023-02-18T02:42:44;100668.22;;;6.84;100.00
12349;BME280;5974;42.710;27.258;2023-02-18T02:45:18;100680.09;;;6.44;100.00
12349;BME280;5974;42.710;27.258;2023-02-18T02:47:54;100677.13;;;6.12;100.00
12349;BME280;5974;42.710;27.258;2023-02-18T02:50:29;100678.00;;;6.11;100.00
12349;BME280;5974;42.710;27.258;2023-02-18T02:53:03;100675.44;;;6.06;100.00
12349;BME280;5974;42.710;27.258;2023-02-18T02:55:31;100685.94;;;5.98;100.00
12349;BME280;5974;42.710;27.258;2023-02-18T02:57:58;100673.78;;;6.02;100.00
12349;BME280;5974;42.710;27.258;2023-02-18T03:00:32;100678.03;;;6.08;100.00
12349;BME280;5974;42.710;27.258;2023-02-18T03:03:29;100680.75;;;5.98;100.00
12349;BME280;5974;42.710;27.258;2023-02-18T03:08:56;100655.75;;;5.91;100.00
12349;BME280;5974;42.710;27.258;2023-02-18T03:11:28;100677.28;;;5.99;100.00
12349;BME280;5974;42.710;27.258;2023-02-18T03:14:04;100670.31;;;6.02;100.00
12349;BME280;5974;42.710;27.258;2023-02-18T03:16:40;100661.69;;;6.01;100.00
12349;BME280;5974;42.710;27.258;2023-02-18T03:19:13;100662.53;;;6.02;100.00
12349;BME280;5974;42.710;27.258;2023-02-18T03:21:47;100667.03;;;5.89;100.00
12349;BME280;5974;42.710;27.258;2023-02-18T03:24:18;100668.81;;;5.82;100.00
12349;BME280;5974;42.710;27.258;2023-02-18T03:26:51;100675.69;;;5.89;100.00
12349;BME280;5974;42.710;27.258;2023-02-18T03:29:20;100682.72;;;5.75;100.00
12349;BME280;5974;42.710;27.258;2023-02-18T03:31:51;100676.69;;;5.75;100.00
12349;BME280;5974;42.710;27.258;2023-02-18T03:34:23;100678.44;;;5.73;100.00
12349;BME280;5974;42.710;27.258;2023-02-18T03:36:53;100671.38;;;5.87;100.00
12349;BME280;5974;42.710;27.258;2023-02-18T03:39:22;100677.41;;;5.90;100.00
12349;BME280;5974;42.710;27.258;2023-02-18T03:41:52;100669.69;;;5.78;100.00
12349;BME280;5974;42.710;27.258;2023-02-18T03:44:19;100661.28;;;5.61;100.00
12349;BME280;5974;42.710;27.258;2023-02-18T03:46:47;100663.16;;;5.48;100.00
12349;BME280;5974;42.710;27.258;2023-02-18T03:49:14;100663.09;;;5.55;100.00
12349;BME280;5974;42.710;27.258;2023-02-18T03:51:42;100665.59;;;5.62;100.00
12349;BME280;5974;42.710;27.258;2023-02-18T03:54:10;100656.34;;;5.38;100.00
12349;BME280;5974;42.710;27.258;2023-02-18T03:56:38;100679.50;;;5.57;100.00
12349;BME280;5974;42.710;27.258;2023-02-18T03:59:05;100682.94;;;5.57;100.00
12349;BME280;5974;42.710;27.258;2023-02-18T04:01:32;100681.16;;;5.62;100.00
12349;BME280;5974;42.710;27.258;2023-02-18T04:04:00;100668.91;;;5.73;100.00
12349;BME280;5974;42.710;27.258;2023-02-18T04:06:27;100670.75;;;5.65;100.00
12349;BME280;5974;42.710;27.258;2023-02-18T04:08:54;100676.16;;;5.47;100.00
12349;BME280;5974;42.710;27.258;2023-02-18T04:11:22;100677.81;;;5.51;100.00
12349;BME280;5974;42.710;27.258;2023-02-18T04:13:49;100658.09;;;5.36;100.00
12349;BME280;5974;42.710;27.258;2023-02-18T04:16:16;100673.38;;;5.61;100.00
12349;BME280;5974;42.710;27.258;2023-02-18T04:18:43;100670.53;;;5.82;100.00
12349;BME280;5974;42.710;27.258;2023-02-18T04:21:10;100668.72;;;5.91;100.00
12349;BME280;5974;42.710;27.258;2023-02-18T04:23:37;100669.41;;;6.06;100.00
12349;BME280;5974;42.710;27.258;2023-02-18T04:26:03;100672.84;;;6.08;100.00
12349;BME280;5974;42.710;27.258;2023-02-18T04:28:32;100664.31;;;5.98;100.00
12349;BME280;5974;42.710;27.258;2023-02-18T04:30:58;100653.19;;;5.88;100.00
12349;BME280;5974;42.710;27.258;2023-02-18T04:33:25;100659.38;;;5.75;100.00
12349;BME280;5974;42.710;27.258;2023-02-18T04:35:52;100659.31;;;5.78;100.00
12349;BME280;5974;42.710;27.258;2023-02-18T04:38:19;100650.69;;;5.79;100.00
12349;BME280;5974;42.710;27.258;2023-02-18T04:40:46;100641.84;;;5.95;100.00
12349;BME280;5974;42.710;27.258;2023-02-18T04:43:13;100638.72;;;5.68;100.00
12349;BME280;5974;42.710;27.258;2023-02-18T04:45:41;100635.97;;;5.78;100.00
12349;BME280;5974;42.710;27.258;2023-02-18T04:48:08;100641.50;;;5.53;100.00
12349;BME280;5974;42.710;27.258;2023-02-18T04:50:35;100632.03;;;5.48;100.00
12349;BME280;5974;42.710;27.258;2023-02-18T04:53:01;100636.47;;;5.40;100.00
12349;BME280;5974;42.710;27.258;2023-02-18T04:55:28;100646.84;;;5.40;100.00
12349;BME280;5974;42.710;27.258;2023-02-18T04:57:55;100644.00;;;5.60;100.00
12349;BME280;5974;42.710;27.258;2023-02-18T05:00:22;100635.22;;;5.72;100.00
12349;BME280;5974;42.710;27.258;2023-02-18T05:02:50;100639.75;;;5.55;100.00
12349;BME280;5974;42.710;27.258;2023-02-18T05:05:17;100644.03;;;5.59;100.00
12349;BME280;5974;42.710;27.258;2023-02-18T05:07:44;100632.50;;;5.81;100.00
12349;BME280;5974;42.710;27.258;2023-02-18T05:10:14;100631.69;;;5.77;100.00
12349;BME280;5974;42.710;27.258;2023-02-18T05:12:41;100617.47;;;6.09;100.00
12349;BME280;5974;42.710;27.258;2023-02-18T05:15:09;100619.03;;;6.19;100.00
12349;BME280;5974;42.710;27.258;2023-02-18T05:17:36;100617.28;;;6.19;100.00
12349;BME280;5974;42.710;27.258;2023-02-18T05:20:05;100622.56;;;6.13;100.00
12349;BME280;5974;42.710;27.258;2023-02-18T05:22:32;100629.63;;;5.35;100.00
12349;BME280;5974;42.710;27.258;2023-02-18T05:24:59;100642.63;;;5.32;100.00
12349;BME280;5974;42.710;27.258;2023-02-18T05:27:26;100634.25;;;5.03;100.00
12349;BME280;5974;42.710;27.258;2023-02-18T05:29:53;100633.56;;;4.85;100.00
12349;BME280;5974;42.710;27.258;2023-02-18T05:32:20;100644.03;;;5.57;100.00
12349;BME280;5974;42.710;27.258;2023-02-18T05:34:47;100641.88;;;5.19;100.00
12349;BME280;5974;42.710;27.258;2023-02-18T05:37:16;100648.00;;;5.12;100.00
12349;BME280;5974;42.710;27.258;2023-02-18T05:39:43;100638.59;;;4.99;100.00
12349;BME280;5974;42.710;27.258;2023-02-18T05:42:10;100637.72;;;5.02;100.00
12349;BME280;5974;42.710;27.258;2023-02-18T05:44:37;100643.13;;;5.61;100.00
12349;BME280;5974;42.710;27.258;2023-02-18T05:47:06;100641.91;;;5.92;100.00
12349;BME280;5974;42.710;27.258;2023-02-18T05:49:34;100647.72;;;6.10;100.00
12349;BME280;5974;42.710;27.258;2023-02-18T05:52:02;100638.34;;;5.99;100.00
12349;BME280;5974;42.710;27.258;2023-02-18T05:54:31;100643.78;;;6.42;100.00
12349;BME280;5974;42.710;27.258;2023-02-18T05:56:58;100649.25;;;6.79;100.00
12349;BME280;5974;42.710;27.258;2023-02-18T05:59:25;100630.56;;;7.06;100.00
12349;BME280;5974;42.710;27.258;2023-02-18T06:01:52;100641.03;;;7.49;100.00
12349;BME280;5974;42.710;27.258;2023-02-18T06:04:19;100640.34;;;7.40;100.00
12349;BME280;5974;42.710;27.258;2023-02-18T06:06:46;100624.28;;;7.62;98.87
12349;BME280;5974;42.710;27.258;2023-02-18T06:09:13;100644.28;;;7.16;98.40
12349;BME280;5974;42.710;27.258;2023-02-18T06:11:41;100647.47;;;6.81;99.25
12349;BME280;5974;42.710;27.258;2023-02-18T06:14:08;100647.72;;;7.17;98.38
12349;BME280;5974;42.710;27.258;2023-02-18T06:16:35;100640.34;;;6.92;97.21
12349;BME280;5974;42.710;27.258;2023-02-18T06:19:02;100650.44;;;7.11;97.48
12349;BME280;5974;42.710;27.258;2023-02-18T06:21:29;100655.31;;;7.29;96.93
12349;BME280;5974;42.710;27.258;2023-02-18T06:23:56;100653.47;;;7.34;95.99
12349;BME280;5974;42.710;27.258;2023-02-18T06:26:23;100640.97;;;7.51;93.85
12349;BME280;5974;42.710;27.258;2023-02-18T06:28:51;100651.69;;;7.36;94.21
12349;BME280;5974;42.710;27.258;2023-02-18T06:31:19;100631.47;;;7.50;93.22
12349;BME280;5974;42.710;27.258;2023-02-18T06:33:45;100639.84;;;7.66;92.09
12349;BME280;5974;42.710;27.258;2023-02-18T06:36:13;100633.00;;;8.00;90.98
12349;BME280;5974;42.710;27.258;2023-02-18T06:38:40;100635.59;;;8.01;90.27
12349;BME280;5974;42.710;27.258;2023-02-18T06:41:08;100630.69;;;8.28;90.27
12349;BME280;5974;42.710;27.258;2023-02-18T06:43:36;100637.94;;;8.13;89.28
12349;BME280;5974;42.710;27.258;2023-02-18T06:46:04;100638.75;;;8.54;88.78
12349;BME280;5974;42.710;27.258;2023-02-18T06:48:31;100635.72;;;8.72;87.58
12349;BME280;5974;42.710;27.258;2023-02-18T06:50:58;100649.72;;;8.31;86.90
12349;BME280;5974;42.710;27.258;2023-02-18T06:53:25;100641.53;;;8.08;89.28
12349;BME280;5974;42.710;27.258;2023-02-18T06:55:52;100630.47;;;7.97;89.11
12349;BME280;5974;42.710;27.258;2023-02-18T06:58:19;100639.16;;;7.97;90.11
12349;BME280;5974;42.710;27.258;2023-02-18T07:00:47;100653.91;;;7.97;89.73
12349;BME280;5974;42.710;27.258;2023-02-18T07:03:15;100649.88;;;7.82;90.61
12349;BME280;5974;42.710;27.258;2023-02-18T07:05:42;100642.94;;;7.83;90.31
12349;BME280;5974;42.710;27.258;2023-02-18T07:08:09;100643.63;;;7.91;89.59
12349;BME280;5974;42.710;27.258;2023-02-18T07:10:36;100636.06;;;8.18;88.67
12349;BME280;5974;42.710;27.258;2023-02-18T07:13:03;100638.44;;;8.31;88.38
12349;BME280;5974;42.710;27.258;2023-02-18T07:15:30;100643.41;;;8.01;89.08
12349;BME280;5974;42.710;27.258;2023-02-18T07:17:57;100624.44;;;8.35;89.20
12349;BME280;5974;42.710;27.258;2023-02-18T07:20:25;100622.63;;;8.38;87.98
12349;BME280;5974;42.710;27.258;2023-02-18T07:22:52;100612.69;;;7.77;88.60
12349;BME280;5974;42.710;27.258;2023-02-18T07:25:20;100606.03;;;8.04;88.20
12349;BME280;5974;42.710;27.258;2023-02-18T07:27:47;100607.75;;;8.05;88.33
12349;BME280;5974;42.710;27.258;2023-02-18T07:30:14;100606.69;;;8.13;87.55
12349;BME280;5974;42.710;27.258;2023-02-18T07:32:41;100603.75;;;8.29;86.91
12349;BME280;5974;42.710;27.258;2023-02-18T07:35:10;100606.78;;;8.83;84.37
12349;BME280;5974;42.710;27.258;2023-02-18T07:37:42;100596.41;;;8.46;83.61
12349;BME280;5974;42.710;27.258;2023-02-18T07:40:12;100590.81;;;8.24;84.55
12349;BME280;5974;42.710;27.258;2023-02-18T07:42:39;100613.03;;;8.76;83.18
12349;BME280;5974;42.710;27.258;2023-02-18T07:45:07;100614.88;;;8.70;82.99
12349;BME280;5974;42.710;27.258;2023-02-18T07:47:34;100618.81;;;8.87;81.54
12349;BME280;5974;42.710;27.258;2023-02-18T07:50:01;100614.16;;;8.99;81.63
12349;BME280;5974;42.710;27.258;2023-02-18T07:52:28;100613.56;;;8.88;82.01
12349;BME280;5974;42.710;27.258;2023-02-18T07:54:56;100616.59;;;8.71;81.06
12349;BME280;5974;42.710;27.258;2023-02-18T07:57:23;100626.06;;;8.76;81.84
12349;BME280;5974;42.710;27.258;2023-02-18T07:59:50;100626.53;;;8.91;80.94
12349;BME280;5974;42.710;27.258;2023-02-18T08:02:18;100615.78;;;9.03;79.99
12349;BME280;5974;42.710;27.258;2023-02-18T08:04:45;100631.44;;;9.03;80.94
12349;BME280;5974;42.710;27.258;2023-02-18T08:07:13;100615.38;;;9.18;79.87
12349;BME280;5974;42.710;27.258;2023-02-18T08:09:40;100627.22;;;9.32;78.84
12349;BME280;5974;42.710;27.258;2023-02-18T08:12:08;100622.75;;;9.03;79.47
12349;BME280;5974;42.710;27.258;2023-02-18T08:14:35;100610.41;;;9.09;78.98
12349;BME280;5974;42.710;27.258;2023-02-18T08:17:03;100607.72;;;9.12;78.71
12349;BME280;5974;42.710;27.258;2023-02-18T08:19:29;100611.66;;;9.27;79.00
12349;BME280;5974;42.710;27.258;2023-02-18T08:22:00;100609.72;;;9.01;77.99
12349;BME280;5974;42.710;27.258;2023-02-18T08:24:27;100608.28;;;9.54;76.98
12349;BME280;5974;42.710;27.258;2023-02-18T08:26:54;100614.19;;;9.61;75.69
12349;BME280;5974;42.710;27.258;2023-02-18T08:29:22;100599.19;;;9.69;75.35
12349;BME280;5974;42.710;27.258;2023-02-18T08:31:49;100609.09;;;9.86;73.87
12349;BME280;5974;42.710;27.258;2023-02-18T08:34:18;100565.84;;;9.48;74.31
12349;BME280;5974;42.710;27.258;2023-02-18T08:36:45;100593.38;;;9.58;75.25
12349;BME280;5974;42.710;27.258;2023-02-18T08:39:12;100577.91;;;9.52;75.37
12349;BME280;5974;42.710;27.258;2023-02-18T08:41:39;100595.72;;;9.67;74.96
12349;BME280;5974;42.710;27.258;2023-02-18T08:44:05;100592.06;;;9.72;75.60
12349;BME280;5974;42.710;27.258;2023-02-18T08:46:34;100598.06;;;9.76;75.45
12349;BME280;5974;42.710;27.258;2023-02-18T08:49:01;100590.22;;;10.05;75.11
12349;BME280;5974;42.710;27.258;2023-02-18T08:51:27;100592.66;;;10.11;74.24
12349;BME280;5974;42.710;27.258;2023-02-18T08:53:55;100604.78;;;10.14;73.13
12349;BME280;5974;42.710;27.258;2023-02-18T08:56:22;100594.34;;;10.14;72.60
12349;BME280;5974;42.710;27.258;2023-02-18T08:58:49;100585.91;;;10.58;72.14
12349;BME280;5974;42.710;27.258;2023-02-18T09:01:16;100591.91;;;10.62;70.32
12349;BME280;5974;42.710;27.258;2023-02-18T09:03:44;100576.97;;;10.92;69.64
12349;BME280;5974;42.710;27.258;2023-02-18T09:06:11;100584.78;;;10.67;69.39
12349;BME280;5974;42.710;27.258;2023-02-18T09:08:38;100582.00;;;10.96;67.45
12349;BME280;5974;42.710;27.258;2023-02-18T09:11:05;100580.09;;;10.76;68.20
12349;BME280;5974;42.710;27.258;2023-02-18T09:13:32;100582.19;;;11.39;67.22
12349;BME280;5974;42.710;27.258;2023-02-18T09:16:01;100577.75;;;10.94;67.34
12349;BME280;5974;42.710;27.258;2023-02-18T09:18:29;100533.94;;;11.47;66.80
12349;BME280;5974;42.710;27.258;2023-02-18T09:20:58;100559.38;;;10.70;67.65
12349;BME280;5974;42.710;27.258;2023-02-18T09:23:26;100573.78;;;10.82;68.37
12349;BME280;5974;42.710;27.258;2023-02-18T09:25:53;100564.19;;;11.07;67.80
12349;BME280;5974;42.710;27.258;2023-02-18T09:28:20;100573.16;;;11.00;67.85
12349;BME280;5974;42.710;27.258;2023-02-18T09:30:47;100563.78;;;10.95;67.38
12349;BME280;5974;42.710;27.258;2023-02-18T09:33:14;100560.00;;;11.26;67.97
12349;BME280;5974;42.710;27.258;2023-02-18T09:35:42;100547.94;;;11.92;66.85
12349;BME280;5974;42.710;27.258;2023-02-18T09:38:13;100549.41;;;12.83;65.08
12349;BME280;5974;42.710;27.258;2023-02-18T09:40:44;100546.66;;;13.82;63.51
12349;BME280;5974;42.710;27.258;2023-02-18T09:43:27;100541.53;;;13.23;62.05
12349;BME280;5974;42.710;27.258;2023-02-18T09:45:57;100528.22;;;13.84;61.60
12349;BME280;5974;42.710;27.258;2023-02-18T09:48:27;100520.31;;;13.28;62.61
12349;BME280;5974;42.710;27.258;2023-02-18T09:50:57;100517.56;;;13.87;60.18
12349;BME280;5974;42.710;27.258;2023-02-18T09:53:25;100518.63;;;13.83;61.57
12349;BME280;5974;42.710;27.258;2023-02-18T09:55:54;100496.44;;;14.93;59.65
12349;BME280;5974;42.710;27.258;2023-02-18T09:58:24;100501.41;;;14.64;58.79
12349;BME280;5974;42.710;27.258;2023-02-18T10:00:55;100508.47;;;14.47;59.05
12349;BME280;5974;42.710;27.258;2023-02-18T10:03:28;100488.66;;;13.68;60.00
12349;BME280;5974;42.710;27.258;2023-02-18T10:06:00;100480.13;;;14.52;58.81
12349;BME280;5974;42.710;27.258;2023-02-18T10:08:33;100487.97;;;14.36;58.22
12349;BME280;5974;42.710;27.258;2023-02-18T10:11:01;100491.72;;;14.31;57.90
12349;BME280;5974;42.710;27.258;2023-02-18T10:13:30;100479.38;;;13.42;58.65
12349;BME280;5974;42.710;27.258;2023-02-18T10:15:58;100480.13;;;13.44;59.17
12349;BME280;5974;42.710;27.258;2023-02-18T10:18:27;100455.63;;;14.34;58.07
12349;BME280;5974;42.710;27.258;2023-02-18T10:21:03;100489.38;;;14.60;57.21
12349;BME280;5974;42.710;27.258;2023-02-18T10:23:33;100484.59;;;14.84;57.07
12349;BME280;5974;42.710;27.258;2023-02-18T10:26:04;100484.59;;;14.84;55.85
12349;BME280;5974;42.710;27.258;2023-02-18T10:28:34;100475.00;;;14.32;56.66
12349;BME280;5974;42.710;27.258;2023-02-18T10:31:04;100475.94;;;14.65;56.16
12349;BME280;5974;42.710;27.258;2023-02-18T10:33:38;100470.13;;;14.07;57.41
12349;BME280;5974;42.710;27.258;2023-02-18T10:36:20;100456.44;;;13.82;56.99
12349;BME280;5974;42.710;27.258;2023-02-18T10:39:01;100468.44;;;14.23;56.64
12349;BME280;5974;42.710;27.258;2023-02-18T10:41:37;100453.06;;;13.80;57.41
12349;BME280;5974;42.710;27.258;2023-02-18T10:44:16;100453.91;;;13.80;58.34
12349;BME280;5974;42.710;27.258;2023-02-18T10:46:54;100446.38;;;13.37;59.40
12349;BME280;5974;42.710;27.258;2023-02-18T10:49:46;100445.78;;;13.30;60.09
12349;BME280;5974;42.710;27.258;2023-02-18T10:52:16;100438.41;;;13.93;58.81
12349;BME280;5974;42.710;27.258;2023-02-18T10:54:58;100443.38;;;13.44;59.49
12349;BME280;5974;42.710;27.258;2023-02-18T10:57:25;100443.13;;;13.32;60.58
12349;BME280;5974;42.710;27.258;2023-02-18T10:59:58;100437.44;;;13.41;60.11
12349;BME280;5974;42.710;27.258;2023-02-18T11:02:27;100440.56;;;13.66;60.25
12349;BME280;5974;42.710;27.258;2023-02-18T11:04:57;100434.56;;;13.81;60.18
12349;BME280;5974;42.710;27.258;2023-02-18T11:07:30;100418.16;;;14.46;59.59
12349;BME280;5974;42.710;27.258;2023-02-18T11:10:01;100427.81;;;14.11;59.94
12349;BME280;5974;42.710;27.258;2023-02-18T11:12:42;100411.88;;;14.32;59.79
12349;BME280;5974;42.710;27.258;2023-02-18T11:15:17;100418.75;;;14.00;60.91
12349;BME280;5974;42.710;27.258;2023-02-18T11:17:46;100405.06;;;13.40;61.76
12349;BME280;5974;42.710;27.258;2023-02-18T11:20:28;100408.06;;;13.86;61.08
12349;BME280;5974;42.710;27.258;2023-02-18T11:22:57;100409.19;;;13.99;60.92
12349;BME280;5974;42.710;27.258;2023-02-18T11:25:27;100411.97;;;13.96;61.01
12349;BME280;5974;42.710;27.258;2023-02-18T11:27:59;100402.25;;;13.79;62.28
12349;BME280;5974;42.710;27.258;2023-02-18T11:30:32;100401.34;;;13.80;61.92
12349;BME280;5974;42.710;27.258;2023-02-18T11:33:08;100397.66;;;14.19;61.78
12349;BME280;5974;42.710;27.258;2023-02-18T11:35:36;100391.06;;;13.40;61.83
12349;BME280;5974;42.710;27.258;2023-02-18T11:38:15;100392.06;;;13.37;62.25
12349;BME280;5974;42.710;27.258;2023-02-18T11:40:52;100379.78;;;13.38;61.96
12349;BME280;5974;42.710;27.258;2023-02-18T11:43:21;100394.09;;;13.49;61.82
12349;BME280;5974;42.710;27.258;2023-02-18T11:46:07;100378.84;;;13.39;61.77
12349;BME280;5974;42.710;27.258;2023-02-18T11:48:34;100387.00;;;13.51;61.50
12349;BME280;5974;42.710;27.258;2023-02-18T11:51:01;100378.69;;;14.29;61.01
12349;BME280;5974;42.710;27.258;2023-02-18T11:53:31;100383.81;;;13.98;60.62
12349;BME280;5974;42.710;27.258;2023-02-18T11:56:00;100370.25;;;14.57;59.96
12349;BME280;5974;42.710;27.258;2023-02-18T11:58:36;100379.81;;;14.42;62.53
12349;BME280;5974;42.710;27.258;2023-02-18T12:01:05;100372.56;;;14.63;60.13
12349;BME280;5974;42.710;27.258;2023-02-18T12:03:41;100365.38;;;14.49;59.23
12349;BME280;5974;42.710;27.258;2023-02-18T12:06:13;100354.50;;;14.05;59.34
12349;BME280;5974;42.710;27.258;2023-02-18T12:08:48;100360.44;;;14.09;58.70
12349;BME280;5974;42.710;27.258;2023-02-18T12:11:23;100355.50;;;14.03;59.34
12349;BME280;5974;42.710;27.258;2023-02-18T12:13:55;100350.53;;;14.31;58.79
12349;BME280;5974;42.710;27.258;2023-02-18T12:16:31;100348.22;;;14.25;58.49
12349;BME280;5974;42.710;27.258;2023-02-18T12:21:56;100354.44;;;13.90;58.02
12349;BME280;5974;42.710;27.258;2023-02-18T12:24:37;100347.38;;;13.56;58.28
12349;BME280;5974;42.710;27.258;2023-02-18T12:27:13;100356.06;;;13.92;58.43
12349;BME280;5974;42.710;27.258;2023-02-18T12:29:53;100352.72;;;13.89;58.03
12349;BME280;5974;42.710;27.258;2023-02-18T12:32:36;100343.19;;;13.69;58.57
12349;BME280;5974;42.710;27.258;2023-02-18T12:35:18;100347.22;;;13.76;58.36
12349;BME280;5974;42.710;27.258;2023-02-18T12:38:11;100339.81;;;13.50;58.64
12349;BME280;5974;42.710;27.258;2023-02-18T12:40:56;100338.56;;;13.21;59.21
12349;BME280;5974;42.710;27.258;2023-02-18T12:43:35;100331.47;;;13.59;59.04
12349;BME280;5974;42.710;27.258;2023-02-18T12:46:21;100304.13;;;13.27;59.19
12349;BME280;5974;42.710;27.258;2023-02-18T12:49:06;100328.84;;;13.59;59.55
12349;BME280;5974;42.710;27.258;2023-02-18T12:51:45;100329.28;;;13.67;58.86
12349;BME280;5974;42.710;27.258;2023-02-18T12:54:37;100294.28;;;13.84;58.15
12349;BME280;5974;42.710;27.258;2023-02-18T12:57:30;100330.09;;;13.86;58.74
12349;BME280;5974;42.710;27.258;2023-02-18T13:00:27;100325.22;;;13.96;58.54
12349;BME280;5974;42.710;27.258;2023-02-18T13:06:01;100316.91;;;13.52;59.19
12349;BME280;5974;42.710;27.258;2023-02-18T13:08:42;100313.13;;;13.57;59.11
12349;BME280;5974;42.710;27.258;2023-02-18T13:11:19;100300.47;;;13.48;59.14
12349;BME280;5974;42.710;27.258;2023-02-18T13:13:57;100298.00;;;13.80;58.45
12349;BME280;5974;42.710;27.258;2023-02-18T13:16:28;100303.25;;;13.63;58.66
12349;BME280;5974;42.710;27.258;2023-02-18T13:19:00;100305.13;;;13.78;58.58